sensor_id;sensor_type;location;lat;lon;timestamp;temperature;humidity
22532;DHT22;11432;46.924;7.114;2024-02-14T00:00:01;5.00;1.00
22532;DHT22;11432;46.924;7.114;2024-02-14T00:02:27;5.00;1.00
22532;DHT22;11432;46.924;7.114;2024-02-14T00:04:53;4.90;1.00
22532;DHT22;11432;46.924;7.114;2024-02-14T00:07:20;5.00;1.00
22532;DHT22;11432;46.924;7.114;2024-02-14T00:09:46;5.00;1.00
22532;DHT22;11432;46.924;7.114;2024-02-14T00:12:12;5.00;1.00
22532;DHT22;11432;46.924;7.114;2024-02-14T00:14:38;5.00;1.00
22532;DHT22;11432;46.924;7.114;2024-02-14T00:17:04;5.00;99.90
22532;DHT22;11432;46.924;7.114;2024-02-14T00:19:31;5.00;99.90
22532;DHT22;11432;46.924;7.114;2024-02-14T00:21:57;5.00;99.90
22532;DHT22;11432;46.924;7.114;2024-02-14T00:24:22;5.00;99.90
22532;DHT22;11432;46.924;7.114;2024-02-14T00:26:50;4.90;99.90
22532;DHT22;11432;46.924;7.114;2024-02-14T00:29:15;5.00;99.90
22532;DHT22;11432;46.924;7.114;2024-02-14T00:31:41;5.00;1.00
22532;DHT22;11432;46.924;7.114;2024-02-14T00:34:09;5.00;1.00
22532;DHT22;11432;46.924;7.114;2024-02-14T00:36:35;5.00;1.00
22532;DHT22;11432;46.924;7.114;2024-02-14T00:39:00;5.00;1.00
22532;DHT22;11432;46.924;7.114;2024-02-14T00:41:26;5.00;1.00
22532;DHT22;11432;46.924;7.114;2024-02-14T00:43:55;5.00;1.00
22532;DHT22;11432;46.924;7.114;2024-02-14T00:46:21;5.00;1.00
22532;DHT22;11432;46.924;7.114;2024-02-14T00:48:46;5.00;1.00
22532;DHT22;11432;46.924;7.114;2024-02-14T00:51:12;5.00;1.00
22532;DHT22;11432;46.924;7.114;2024-02-14T00:53:38;5.00;1.00
22532;DHT22;11432;46.924;7.114;2024-02-14T00:56:04;4.90;1.00
22532;DHT22;11432;46.924;7.114;2024-02-14T00:58:29;4.90;99.90
22532;DHT22;11432;46.924;7.114;2024-02-14T01:00:55;4.90;99.90
22532;DHT22;11432;46.924;7.114;2024-02-14T01:03:20;4.90;99.90
22532;DHT22;11432;46.924;7.114;2024-02-14T01:05:47;4.80;99.90
22532;DHT22;11432;46.924;7.114;2024-02-14T01:08:13;4.80;99.90
22532;DHT22;11432;46.924;7.114;2024-02-14T01:10:40;4.90;30.60
22532;DHT22;11432;46.924;7.114;2024-02-14T01:13:05;4.90;65.20
22532;DHT22;11432;46.924;7.114;2024-02-14T01:15:31;5.00;1.00
22532;DHT22;11432;46.924;7.114;2024-02-14T01:17:58;5.00;1.00
22532;DHT22;11432;46.924;7.114;2024-02-14T01:20:24;5.00;99.90
22532;DHT22;11432;46.924;7.114;2024-02-14T01:22:49;5.10;99.90
22532;DHT22;11432;46.924;7.114;2024-02-14T01:25:15;5.00;99.90
22532;DHT22;11432;46.924;7.114;2024-02-14T01:27:41;5.00;1.00
22532;DHT22;11432;46.924;7.114;2024-02-14T01:30:08;5.00;1.00
22532;DHT22;11432;46.924;7.114;2024-02-14T01:32:34;5.10;1.00
22532;DHT22;11432;46.924;7.114;2024-02-14T01:35:00;5.20;1.00
22532;DHT22;11432;46.924;7.114;2024-02-14T01:37:26;5.20;1.00
22532;DHT22;11432;46.924;7.114;2024-02-14T01:39:51;5.30;1.00
22532;DHT22;11432;46.924;7.114;2024-02-14T01:42:17;5.30;1.00
22532;DHT22;11432;46.924;7.114;2024-02-14T01:44:44;5.30;1.00
22532;DHT22;11432;46.924;7.114;2024-02-14T01:47:10;5.40;99.90
22532;DHT22;11432;46.924;7.114;2024-02-14T01:49:36;5.40;99.90
22532;DHT22;11432;46.924;7.114;2024-02-14T01:52:02;5.40;99.90
22532;DHT22;11432;46.924;7.114;2024-02-14T01:54:33;5.40;99.90
22532;DHT22;11432;46.924;7.114;2024-02-14T01:56:59;5.40;99.90
22532;DHT22;11432;46.924;7.114;2024-02-14T01:59:26;5.40;99.90
22532;DHT22;11432;46.924;7.114;2024-02-14T02:01:52;5.50;99.90
22532;DHT22;11432;46.924;7.114;2024-02-14T02:04:18;5.50;99.90
22532;DHT22;11432;46.924;7.114;2024-02-14T02:06:44;5.50;99.90
22532;DHT22;11432;46.924;7.114;2024-02-14T02:09:10;5.50;99.90
22532;DHT22;11432;46.924;7.114;2024-02-14T02:11:52;5.50;99.90
22532;DHT22;11432;46.924;7.114;2024-02-14T02:14:21;5.40;99.90
22532;DHT22;11432;46.924;7.114;2024-02-14T02:16:47;5.50;99.90
22532;DHT22;11432;46.924;7.114;2024-02-14T02:19:13;5.50;99.90
22532;DHT22;11432;46.924;7.114;2024-02-14T02:21:42;5.60;99.90
22532;DHT22;11432;46.924;7.114;2024-02-14T02:24:11;5.60;99.90
22532;DHT22;11432;46.924;7.114;2024-02-14T02:26:37;5.60;99.90
22532;DHT22;11432;46.924;7.114;2024-02-14T02:29:03;5.60;98.80
22532;DHT22;11432;46.924;7.114;2024-02-14T02:31:30;5.60;99.90
22532;DHT22;11432;46.924;7.114;2024-02-14T02:33:56;5.60;1.00
22532;DHT22;11432;46.924;7.114;2024-02-14T02:36:23;5.70;1.00
22532;DHT22;11432;46.924;7.114;2024-02-14T02:38:50;5.70;1.00
22532;DHT22;11432;46.924;7.114;2024-02-14T02:41:15;5.70;1.00
22532;DHT22;11432;46.924;7.114;2024-02-14T02:43:41;5.70;1.00
22532;DHT22;11432;46.924;7.114;2024-02-14T02:46:09;5.80;1.00
22532;DHT22;11432;46.924;7.114;2024-02-14T02:48:35;5.80;1.00
22532;DHT22;11432;46.924;7.114;2024-02-14T02:51:01;5.70;1.00
22532;DHT22;11432;46.924;7.114;2024-02-14T02:53:27;5.70;1.00
22532;DHT22;11432;46.924;7.114;2024-02-14T02:55:52;5.70;1.00
22532;DHT22;11432;46.924;7.114;2024-02-14T02:58:20;5.70;1.00
22532;DHT22;11432;46.924;7.114;2024-02-14T03:00:46;5.80;1.00
22532;DHT22;11432;46.924;7.114;2024-02-14T03:03:14;5.70;1.00
22532;DHT22;11432;46.924;7.114;2024-02-14T03:05:41;5.80;1.00
22532;DHT22;11432;46.924;7.114;2024-02-14T03:08:11;5.80;1.00
22532;DHT22;11432;46.924;7.114;2024-02-14T03:10:41;5.80;1.00
22532;DHT22;11432;46.924;7.114;2024-02-14T03:13:06;5.80;1.00
22532;DHT22;11432;46.924;7.114;2024-02-14T03:15:37;5.70;1.00
22532;DHT22;11432;46.924;7.114;2024-02-14T03:18:03;5.70;1.00
22532;DHT22;11432;46.924;7.114;2024-02-14T03:20:33;5.70;1.00
22532;DHT22;11432;46.924;7.114;2024-02-14T03:22:59;5.70;1.00
22532;DHT22;11432;46.924;7.114;2024-02-14T03:25:24;5.70;1.00
22532;DHT22;11432;46.924;7.114;2024-02-14T03:27:51;5.60;1.00
22532;DHT22;11432;46.924;7.114;2024-02-14T03:30:19;5.60;1.00
22532;DHT22;11432;46.924;7.114;2024-02-14T03:32:46;5.60;1.00
22532;DHT22;11432;46.924;7.114;2024-02-14T03:35:12;5.60;1.00
22532;DHT22;11432;46.924;7.114;2024-02-14T03:37:40;5.60;1.00
22532;DHT22;11432;46.924;7.114;2024-02-14T03:40:06;5.60;1.00
22532;DHT22;11432;46.924;7.114;2024-02-14T03:42:33;5.60;1.00
22532;DHT22;11432;46.924;7.114;2024-02-14T03:44:59;5.60;1.00
22532;DHT22;11432;46.924;7.114;2024-02-14T03:47:31;5.60;1.00
22532;DHT22;11432;46.924;7.114;2024-02-14T03:49:58;5.60;1.00
22532;DHT22;11432;46.924;7.114;2024-02-14T03:52:23;5.60;1.00
22532;DHT22;11432;46.924;7.114;2024-02-14T03:54:50;5.60;1.00
22532;DHT22;11432;46.924;7.114;2024-02-14T03:57:16;5.50;1.00
22532;DHT22;11432;46.924;7.114;2024-02-14T03:59:43;5.50;1.00
22532;DHT22;11432;46.924;7.114;2024-02-14T04:02:10;5.60;1.00
22532;DHT22;11432;46.924;7.114;2024-02-14T04:04:40;5.60;1.00
22532;DHT22;11432;46.924;7.114;2024-02-14T04:07:07;5.50;1.00
22532;DHT22;11432;46.924;7.114;2024-02-14T04:09:34;5.60;1.00
22532;DHT22;11432;46.924;7.114;2024-02-14T04:12:00;5.60;1.00
22532;DHT22;11432;46.924;7.114;2024-02-14T04:14:25;5.60;1.00
22532;DHT22;11432;46.924;7.114;2024-02-14T04:16:51;5.60;1.00
22532;DHT22;11432;46.924;7.114;2024-02-14T04:19:16;5.60;1.00
22532;DHT22;11432;46.924;7.114;2024-02-14T04:21:43;5.60;1.00
22532;DHT22;11432;46.924;7.114;2024-02-14T04:24:08;5.60;1.00
22532;DHT22;11432;46.924;7.114;2024-02-14T04:26:34;5.60;1.00
22532;DHT22;11432;46.924;7.114;2024-02-14T04:29:00;5.60;1.00
22532;DHT22;11432;46.924;7.114;2024-02-14T04:31:26;5.60;1.00
22532;DHT22;11432;46.924;7.114;2024-02-14T04:33:52;5.60;1.00
22532;DHT22;11432;46.924;7.114;2024-02-14T04:36:20;5.70;1.00
22532;DHT22;11432;46.924;7.114;2024-02-14T04:38:47;5.70;1.00
22532;DHT22;11432;46.924;7.114;2024-02-14T04:41:13;5.70;1.00
22532;DHT22;11432;46.924;7.114;2024-02-14T04:43:40;5.70;1.00
22532;DHT22;11432;46.924;7.114;2024-02-14T04:46:05;5.70;1.00
22532;DHT22;11432;46.924;7.114;2024-02-14T04:48:36;5.70;1.00
22532;DHT22;11432;46.924;7.114;2024-02-14T04:51:03;5.70;1.00
22532;DHT22;11432;46.924;7.114;2024-02-14T04:53:29;5.70;1.00
22532;DHT22;11432;46.924;7.114;2024-02-14T04:55:55;5.60;1.00
22532;DHT22;11432;46.924;7.114;2024-02-14T04:58:20;5.60;1.00
22532;DHT22;11432;46.924;7.114;2024-02-14T05:00:46;5.60;1.00
22532;DHT22;11432;46.924;7.114;2024-02-14T05:03:12;5.60;1.00
22532;DHT22;11432;46.924;7.114;2024-02-14T05:05:38;5.60;1.00
22532;DHT22;11432;46.924;7.114;2024-02-14T05:08:04;5.60;1.00
22532;DHT22;11432;46.924;7.114;2024-02-14T05:10:30;5.60;1.00
22532;DHT22;11432;46.924;7.114;2024-02-14T05:12:57;5.60;1.00
22532;DHT22;11432;46.924;7.114;2024-02-14T05:15:23;5.60;1.00
22532;DHT22;11432;46.924;7.114;2024-02-14T05:17:49;5.60;1.00
22532;DHT22;11432;46.924;7.114;2024-02-14T05:20:16;5.60;1.00
22532;DHT22;11432;46.924;7.114;2024-02-14T05:22:41;5.60;1.00
22532;DHT22;11432;46.924;7.114;2024-02-14T05:25:08;5.50;1.00
22532;DHT22;11432;46.924;7.114;2024-02-14T05:27:37;5.50;1.00
22532;DHT22;11432;46.924;7.114;2024-02-14T05:30:04;5.50;1.00
22532;DHT22;11432;46.924;7.114;2024-02-14T05:32:34;5.50;99.90
22532;DHT22;11432;46.924;7.114;2024-02-14T05:35:01;5.60;99.90
22532;DHT22;11432;46.924;7.114;2024-02-14T05:37:27;5.70;99.90
22532;DHT22;11432;46.924;7.114;2024-02-14T05:39:53;5.60;99.90
22532;DHT22;11432;46.924;7.114;2024-02-14T05:42:19;5.70;99.90
22532;DHT22;11432;46.924;7.114;2024-02-14T05:44:45;5.70;99.90
22532;DHT22;11432;46.924;7.114;2024-02-14T05:47:10;5.60;99.90
22532;DHT22;11432;46.924;7.114;2024-02-14T05:49:41;5.70;99.90
22532;DHT22;11432;46.924;7.114;2024-02-14T05:52:07;5.60;99.90
22532;DHT22;11432;46.924;7.114;2024-02-14T05:54:33;5.60;99.90
22532;DHT22;11432;46.924;7.114;2024-02-14T05:56:59;5.60;99.90
22532;DHT22;11432;46.924;7.114;2024-02-14T05:59:24;5.60;99.90
22532;DHT22;11432;46.924;7.114;2024-02-14T06:01:50;5.60;99.90
22532;DHT22;11432;46.924;7.114;2024-02-14T06:04:16;5.50;99.90
22532;DHT22;11432;46.924;7.114;2024-02-14T06:06:41;5.50;99.90
22532;DHT22;11432;46.924;7.114;2024-02-14T06:09:07;5.60;99.90
22532;DHT22;11432;46.924;7.114;2024-02-14T06:11:37;5.60;99.90
22532;DHT22;11432;46.924;7.114;2024-02-14T06:14:08;5.60;99.90
22532;DHT22;11432;46.924;7.114;2024-02-14T06:16:34;5.60;99.90
22532;DHT22;11432;46.924;7.114;2024-02-14T06:19:00;5.60;99.90
22532;DHT22;11432;46.924;7.114;2024-02-14T06:21:26;5.60;99.90
22532;DHT22;11432;46.924;7.114;2024-02-14T06:23:52;5.60;99.90
22532;DHT22;11432;46.924;7.114;2024-02-14T06:26:19;5.60;99.90
22532;DHT22;11432;46.924;7.114;2024-02-14T06:28:45;5.60;99.90
22532;DHT22;11432;46.924;7.114;2024-02-14T06:31:11;5.60;99.90
22532;DHT22;11432;46.924;7.114;2024-02-14T06:33:37;5.60;99.90
22532;DHT22;11432;46.924;7.114;2024-02-14T06:36:03;5.60;99.90
22532;DHT22;11432;46.924;7.114;2024-02-14T06:38:28;5.60;99.90
22532;DHT22;11432;46.924;7.114;2024-02-14T06:40:54;5.60;99.90
22532;DHT22;11432;46.924;7.114;2024-02-14T06:43:20;5.60;99.90
22532;DHT22;11432;46.924;7.114;2024-02-14T06:45:45;5.60;1.00
22532;DHT22;11432;46.924;7.114;2024-02-14T06:48:11;5.60;1.00
22532;DHT22;11432;46.924;7.114;2024-02-14T06:50:37;5.60;1.00
22532;DHT22;11432;46.924;7.114;2024-02-14T06:53:03;5.70;1.00
22532;DHT22;11432;46.924;7.114;2024-02-14T06:55:29;5.70;1.00
22532;DHT22;11432;46.924;7.114;2024-02-14T06:57:59;5.70;1.00
22532;DHT22;11432;46.924;7.114;2024-02-14T07:00:24;5.60;1.00
22532;DHT22;11432;46.924;7.114;2024-02-14T07:02:50;5.60;1.00
22532;DHT22;11432;46.924;7.114;2024-02-14T07:05:16;5.60;1.00
22532;DHT22;11432;46.924;7.114;2024-02-14T07:07:41;5.60;1.00
22532;DHT22;11432;46.924;7.114;2024-02-14T07:10:08;5.60;1.00
22532;DHT22;11432;46.924;7.114;2024-02-14T07:12:33;5.50;1.00
22532;DHT22;11432;46.924;7.114;2024-02-14T07:15:01;5.50;1.00
22532;DHT22;11432;46.924;7.114;2024-02-14T07:17:27;5.50;1.00
22532;DHT22;11432;46.924;7.114;2024-02-14T07:19:52;5.60;1.00
22532;DHT22;11432;46.924;7.114;2024-02-14T07:22:18;5.60;1.00
22532;DHT22;11432;46.924;7.114;2024-02-14T07:24:47;5.60;1.00
22532;DHT22;11432;46.924;7.114;2024-02-14T07:27:13;5.70;1.00
22532;DHT22;11432;46.924;7.114;2024-02-14T07:29:39;5.70;1.00
22532;DHT22;11432;46.924;7.114;2024-02-14T07:32:05;5.70;1.00
22532;DHT22;11432;46.924;7.114;2024-02-14T07:34:32;5.70;1.00
22532;DHT22;11432;46.924;7.114;2024-02-14T07:36:57;5.70;1.00
22532;DHT22;11432;46.924;7.114;2024-02-14T07:39:23;5.80;1.00
22532;DHT22;11432;46.924;7.114;2024-02-14T07:41:48;5.80;1.00
22532;DHT22;11432;46.924;7.114;2024-02-14T07:44:14;5.70;99.90
22532;DHT22;11432;46.924;7.114;2024-02-14T07:47:17;5.80;99.90
22532;DHT22;11432;46.924;7.114;2024-02-14T07:49:42;5.80;1.00
22532;DHT22;11432;46.924;7.114;2024-02-14T07:52:08;5.90;99.90
22532;DHT22;11432;46.924;7.114;2024-02-14T07:54:33;6.00;99.90
22532;DHT22;11432;46.924;7.114;2024-02-14T07:56:59;6.00;99.90
22532;DHT22;11432;46.924;7.114;2024-02-14T07:59:25;6.10;1.00
22532;DHT22;11432;46.924;7.114;2024-02-14T08:01:50;6.20;1.00
22532;DHT22;11432;46.924;7.114;2024-02-14T08:04:16;6.20;99.90
22532;DHT22;11432;46.924;7.114;2024-02-14T08:06:44;6.40;99.90
22532;DHT22;11432;46.924;7.114;2024-02-14T08:09:10;6.40;99.90
22532;DHT22;11432;46.924;7.114;2024-02-14T08:11:36;6.30;99.90
22532;DHT22;11432;46.924;7.114;2024-02-14T08:14:01;6.30;99.90
22532;DHT22;11432;46.924;7.114;2024-02-14T08:16:28;6.30;1.00
22532;DHT22;11432;46.924;7.114;2024-02-14T08:18:54;6.30;1.00
22532;DHT22;11432;46.924;7.114;2024-02-14T08:21:28;6.40;1.00
22532;DHT22;11432;46.924;7.114;2024-02-14T08:23:54;6.40;1.00
22532;DHT22;11432;46.924;7.114;2024-02-14T08:26:21;6.60;1.00
22532;DHT22;11432;46.924;7.114;2024-02-14T08:28:48;6.70;99.90
22532;DHT22;11432;46.924;7.114;2024-02-14T08:31:14;6.80;99.90
22532;DHT22;11432;46.924;7.114;2024-02-14T08:33:39;7.00;99.90
22532;DHT22;11432;46.924;7.114;2024-02-14T08:36:06;8.30;99.90
22532;DHT22;11432;46.924;7.114;2024-02-14T08:38:32;8.30;1.00
22532;DHT22;11432;46.924;7.114;2024-02-14T08:40:58;8.10;1.00
22532;DHT22;11432;46.924;7.114;2024-02-14T08:43:24;8.20;1.00
22532;DHT22;11432;46.924;7.114;2024-02-14T08:45:54;8.30;1.00
22532;DHT22;11432;46.924;7.114;2024-02-14T08:48:19;8.40;1.00
22532;DHT22;11432;46.924;7.114;2024-02-14T08:50:45;8.40;1.00
22532;DHT22;11432;46.924;7.114;2024-02-14T08:53:12;8.40;1.00
22532;DHT22;11432;46.924;7.114;2024-02-14T08:55:39;8.20;1.00
22532;DHT22;11432;46.924;7.114;2024-02-14T08:58:05;8.10;1.00
22532;DHT22;11432;46.924;7.114;2024-02-14T09:00:31;7.90;1.00
22532;DHT22;11432;46.924;7.114;2024-02-14T09:02:58;7.90;1.00
22532;DHT22;11432;46.924;7.114;2024-02-14T09:05:25;7.80;1.00
22532;DHT22;11432;46.924;7.114;2024-02-14T09:07:51;8.00;1.00
22532;DHT22;11432;46.924;7.114;2024-02-14T09:10:17;8.10;1.00
22532;DHT22;11432;46.924;7.114;2024-02-14T09:12:42;8.20;1.00
22532;DHT22;11432;46.924;7.114;2024-02-14T09:15:09;8.50;1.00
22532;DHT22;11432;46.924;7.114;2024-02-14T09:17:34;8.60;1.00
22532;DHT22;11432;46.924;7.114;2024-02-14T09:20:01;8.90;1.00
22532;DHT22;11432;46.924;7.114;2024-02-14T09:22:27;9.00;1.00
22532;DHT22;11432;46.924;7.114;2024-02-14T09:24:54;9.20;1.00
22532;DHT22;11432;46.924;7.114;2024-02-14T09:27:19;9.10;99.90
22532;DHT22;11432;46.924;7.114;2024-02-14T09:29:45;9.20;99.90
22532;DHT22;11432;46.924;7.114;2024-02-14T09:32:11;9.10;99.90
22532;DHT22;11432;46.924;7.114;2024-02-14T09:34:36;9.30;99.90
22532;DHT22;11432;46.924;7.114;2024-02-14T09:37:03;9.30;99.90
22532;DHT22;11432;46.924;7.114;2024-02-14T09:39:31;9.40;99.90
22532;DHT22;11432;46.924;7.114;2024-02-14T09:41:59;9.60;99.90
22532;DHT22;11432;46.924;7.114;2024-02-14T09:44:31;10.10;1.00
22532;DHT22;11432;46.924;7.114;2024-02-14T09:46:58;10.40;1.00
22532;DHT22;11432;46.924;7.114;2024-02-14T09:49:25;10.50;1.00
22532;DHT22;11432;46.924;7.114;2024-02-14T09:51:51;10.50;99.90
22532;DHT22;11432;46.924;7.114;2024-02-14T09:54:17;10.30;99.90
22532;DHT22;11432;46.924;7.114;2024-02-14T09:56:50;10.30;99.90
22532;DHT22;11432;46.924;7.114;2024-02-14T09:59:19;10.30;99.90
22532;DHT22;11432;46.924;7.114;2024-02-14T10:01:45;10.10;99.90
22532;DHT22;11432;46.924;7.114;2024-02-14T10:04:13;10.00;99.90
22532;DHT22;11432;46.924;7.114;2024-02-14T10:06:39;10.00;1.00
22532;DHT22;11432;46.924;7.114;2024-02-14T10:09:04;10.10;1.00
22532;DHT22;11432;46.924;7.114;2024-02-14T10:11:34;10.10;1.00
22532;DHT22;11432;46.924;7.114;2024-02-14T10:14:00;10.10;99.90
22532;DHT22;11432;46.924;7.114;2024-02-14T10:16:29;10.30;1.00
22532;DHT22;11432;46.924;7.114;2024-02-14T10:18:55;10.00;99.90
22532;DHT22;11432;46.924;7.114;2024-02-14T10:21:21;10.00;99.90
22532;DHT22;11432;46.924;7.114;2024-02-14T10:23:50;10.10;1.00
22532;DHT22;11432;46.924;7.114;2024-02-14T10:26:17;10.40;1.00
22532;DHT22;11432;46.924;7.114;2024-02-14T10:28:43;10.40;1.00
22532;DHT22;11432;46.924;7.114;2024-02-14T10:31:10;10.50;1.00
22532;DHT22;11432;46.924;7.114;2024-02-14T10:33:36;10.60;99.90
22532;DHT22;11432;46.924;7.114;2024-02-14T10:36:02;10.80;99.90
22532;DHT22;11432;46.924;7.114;2024-02-14T10:38:31;11.10;1.00
22532;DHT22;11432;46.924;7.114;2024-02-14T10:40:59;11.20;1.00
22532;DHT22;11432;46.924;7.114;2024-02-14T10:43:25;11.30;1.00
22532;DHT22;11432;46.924;7.114;2024-02-14T10:45:53;11.30;1.00
22532;DHT22;11432;46.924;7.114;2024-02-14T10:48:22;11.40;99.90
22532;DHT22;11432;46.924;7.114;2024-02-14T10:50:53;12.10;99.90
22532;DHT22;11432;46.924;7.114;2024-02-14T10:53:19;13.00;90.30
22532;DHT22;11432;46.924;7.114;2024-02-14T10:55:47;14.00;1.00
22532;DHT22;11432;46.924;7.114;2024-02-14T10:58:16;14.70;99.90
22532;DHT22;11432;46.924;7.114;2024-02-14T11:00:46;15.60;99.90
22532;DHT22;11432;46.924;7.114;2024-02-14T11:03:12;16.40;1.00
22532;DHT22;11432;46.924;7.114;2024-02-14T11:05:47;17.10;99.90
22532;DHT22;11432;46.924;7.114;2024-02-14T11:08:19;16.40;99.90
22532;DHT22;11432;46.924;7.114;2024-02-14T11:10:56;15.80;99.90
22532;DHT22;11432;46.924;7.114;2024-02-14T11:13:27;15.50;99.90
22532;DHT22;11432;46.924;7.114;2024-02-14T11:15:53;15.80;99.90
22532;DHT22;11432;46.924;7.114;2024-02-14T11:18:30;16.40;1.00
22532;DHT22;11432;46.924;7.114;2024-02-14T11:20:56;17.00;1.00
22532;DHT22;11432;46.924;7.114;2024-02-14T11:23:25;16.10;1.00
22532;DHT22;11432;46.924;7.114;2024-02-14T11:25:59;15.10;1.00
22532;DHT22;11432;46.924;7.114;2024-02-14T11:28:25;14.90;1.00
22532;DHT22;11432;46.924;7.114;2024-02-14T11:30:51;14.70;99.90
22532;DHT22;11432;46.924;7.114;2024-02-14T11:33:22;15.40;1.00
22532;DHT22;11432;46.924;7.114;2024-02-14T11:35:50;15.90;99.90
22532;DHT22;11432;46.924;7.114;2024-02-14T11:38:20;16.20;99.90
22532;DHT22;11432;46.924;7.114;2024-02-14T11:40:46;17.40;1.00
22532;DHT22;11432;46.924;7.114;2024-02-14T11:43:16;16.40;1.00
22532;DHT22;11432;46.924;7.114;2024-02-14T11:45:45;15.20;99.90
22532;DHT22;11432;46.924;7.114;2024-02-14T11:48:15;15.40;1.00
22532;DHT22;11432;46.924;7.114;2024-02-14T11:50:43;14.90;1.00
22532;DHT22;11432;46.924;7.114;2024-02-14T11:53:12;15.30;99.90
22532;DHT22;11432;46.924;7.114;2024-02-14T11:55:39;15.40;99.90
22532;DHT22;11432;46.924;7.114;2024-02-14T11:58:10;15.20;97.90
22532;DHT22;11432;46.924;7.114;2024-02-14T12:00:46;15.00;1.00
22532;DHT22;11432;46.924;7.114;2024-02-14T12:03:16;14.80;1.00
22532;DHT22;11432;46.924;7.114;2024-02-14T12:05:42;14.40;99.90
22532;DHT22;11432;46.924;7.114;2024-02-14T12:08:09;13.70;1.00
22532;DHT22;11432;46.924;7.114;2024-02-14T12:10:36;13.60;1.00
22532;DHT22;11432;46.924;7.114;2024-02-14T12:13:10;13.60;88.40
22532;DHT22;11432;46.924;7.114;2024-02-14T12:15:41;13.50;1.00
22532;DHT22;11432;46.924;7.114;2024-02-14T12:18:08;13.50;1.00
22532;DHT22;11432;46.924;7.114;2024-02-14T12:20:41;13.20;1.00
22532;DHT22;11432;46.924;7.114;2024-02-14T12:23:07;13.20;1.00
22532;DHT22;11432;46.924;7.114;2024-02-14T12:25:33;13.10;1.00
22532;DHT22;11432;46.924;7.114;2024-02-14T12:27:59;12.90;1.00
22532;DHT22;11432;46.924;7.114;2024-02-14T12:30:45;13.00;99.90
22532;DHT22;11432;46.924;7.114;2024-02-14T12:33:15;13.00;99.90
22532;DHT22;11432;46.924;7.114;2024-02-14T12:35:48;13.00;1.00
22532;DHT22;11432;46.924;7.114;2024-02-14T12:38:15;13.10;1.00
22532;DHT22;11432;46.924;7.114;2024-02-14T12:40:41;13.20;1.00
22532;DHT22;11432;46.924;7.114;2024-02-14T12:43:07;13.20;99.90
22532;DHT22;11432;46.924;7.114;2024-02-14T12:45:33;13.20;1.00
22532;DHT22;11432;46.924;7.114;2024-02-14T12:47:59;13.30;1.00
22532;DHT22;11432;46.924;7.114;2024-02-14T12:50:25;13.40;1.00
22532;DHT22;11432;46.924;7.114;2024-02-14T12:52:51;13.50;1.00
22532;DHT22;11432;46.924;7.114;2024-02-14T12:55:17;13.60;1.00
22532;DHT22;11432;46.924;7.114;2024-02-14T12:57:44;13.60;1.00
22532;DHT22;11432;46.924;7.114;2024-02-14T13:00:10;13.60;1.00
22532;DHT22;11432;46.924;7.114;2024-02-14T13:02:36;13.60;1.00
22532;DHT22;11432;46.924;7.114;2024-02-14T13:05:04;13.30;1.00
22532;DHT22;11432;46.924;7.114;2024-02-14T13:07:30;13.00;1.00
22532;DHT22;11432;46.924;7.114;2024-02-14T13:09:56;12.60;1.00
22532;DHT22;11432;46.924;7.114;2024-02-14T13:12:22;12.20;1.00
22532;DHT22;11432;46.924;7.114;2024-02-14T13:14:48;12.00;1.00
22532;DHT22;11432;46.924;7.114;2024-02-14T13:17:14;12.00;1.00
22532;DHT22;11432;46.924;7.114;2024-02-14T13:19:40;11.90;1.00
22532;DHT22;11432;46.924;7.114;2024-02-14T13:22:08;11.90;1.00
22532;DHT22;11432;46.924;7.114;2024-02-14T13:24:34;12.00;1.00
22532;DHT22;11432;46.924;7.114;2024-02-14T13:27:00;12.00;1.00
22532;DHT22;11432;46.924;7.114;2024-02-14T13:29:25;12.10;1.00
22532;DHT22;11432;46.924;7.114;2024-02-14T13:31:51;12.20;1.00
22532;DHT22;11432;46.924;7.114;2024-02-14T13:34:17;12.30;1.00
22532;DHT22;11432;46.924;7.114;2024-02-14T13:36:45;12.40;99.90
22532;DHT22;11432;46.924;7.114;2024-02-14T13:39:11;12.60;1.00
22532;DHT22;11432;46.924;7.114;2024-02-14T13:41:38;12.70;1.00
22532;DHT22;11432;46.924;7.114;2024-02-14T13:44:06;12.80;1.00
22532;DHT22;11432;46.924;7.114;2024-02-14T13:46:31;13.00;1.00
22532;DHT22;11432;46.924;7.114;2024-02-14T13:48:57;13.10;1.00
22532;DHT22;11432;46.924;7.114;2024-02-14T13:51:23;13.30;99.90
22532;DHT22;11432;46.924;7.114;2024-02-14T13:53:49;13.50;99.90
22532;DHT22;11432;46.924;7.114;2024-02-14T13:56:15;13.70;99.90
22532;DHT22;11432;46.924;7.114;2024-02-14T13:58:41;13.80;1.00
22532;DHT22;11432;46.924;7.114;2024-02-14T14:01:07;14.00;1.00
22532;DHT22;11432;46.924;7.114;2024-02-14T14:03:33;14.00;1.00
22532;DHT22;11432;46.924;7.114;2024-02-14T14:06:02;14.00;99.90
22532;DHT22;11432;46.924;7.114;2024-02-14T14:08:31;14.00;99.90
22532;DHT22;11432;46.924;7.114;2024-02-14T14:10:56;14.00;1.00
22532;DHT22;11432;46.924;7.114;2024-02-14T14:13:22;13.90;99.90
22532;DHT22;11432;46.924;7.114;2024-02-14T14:15:47;13.80;1.00
22532;DHT22;11432;46.924;7.114;2024-02-14T14:18:13;13.70;1.00
22532;DHT22;11432;46.924;7.114;2024-02-14T14:20:39;13.70;1.00
22532;DHT22;11432;46.924;7.114;2024-02-14T14:23:05;13.60;1.00
22532;DHT22;11432;46.924;7.114;2024-02-14T14:25:31;13.50;1.00
22532;DHT22;11432;46.924;7.114;2024-02-14T14:28:00;13.60;1.00
22532;DHT22;11432;46.924;7.114;2024-02-14T14:30:26;13.50;1.00
22532;DHT22;11432;46.924;7.114;2024-02-14T14:32:52;13.40;99.90
22532;DHT22;11432;46.924;7.114;2024-02-14T14:35:17;13.40;1.00
22532;DHT22;11432;46.924;7.114;2024-02-14T14:37:43;13.40;1.00
22532;DHT22;11432;46.924;7.114;2024-02-14T14:40:09;13.40;1.00
22532;DHT22;11432;46.924;7.114;2024-02-14T14:42:36;13.40;1.00
22532;DHT22;11432;46.924;7.114;2024-02-14T14:45:02;13.30;1.00
22532;DHT22;11432;46.924;7.114;2024-02-14T14:47:28;13.30;99.90
22532;DHT22;11432;46.924;7.114;2024-02-14T14:49:54;13.20;1.00
22532;DHT22;11432;46.924;7.114;2024-02-14T14:52:20;13.20;1.00
22532;DHT22;11432;46.924;7.114;2024-02-14T14:54:45;12.90;1.00
22532;DHT22;11432;46.924;7.114;2024-02-14T14:57:11;12.80;1.00
22532;DHT22;11432;46.924;7.114;2024-02-14T14:59:41;12.70;1.00
22532;DHT22;11432;46.924;7.114;2024-02-14T15:02:07;12.60;1.00
22532;DHT22;11432;46.924;7.114;2024-02-14T15:04:32;12.50;99.90
22532;DHT22;11432;46.924;7.114;2024-02-14T15:07:00;12.50;99.90
22532;DHT22;11432;46.924;7.114;2024-02-14T15:09:26;12.50;99.90
22532;DHT22;11432;46.924;7.114;2024-02-14T15:11:51;12.50;99.90
22532;DHT22;11432;46.924;7.114;2024-02-14T15:14:18;12.50;99.90
22532;DHT22;11432;46.924;7.114;2024-02-14T15:16:43;12.50;99.90
22532;DHT22;11432;46.924;7.114;2024-02-14T15:19:09;12.50;1.00
22532;DHT22;11432;46.924;7.114;2024-02-14T15:21:35;12.50;1.00
22532;DHT22;11432;46.924;7.114;2024-02-14T15:24:00;12.50;1.00
22532;DHT22;11432;46.924;7.114;2024-02-14T15:26:26;12.40;1.00
22532;DHT22;11432;46.924;7.114;2024-02-14T15:28:52;12.40;1.00
22532;DHT22;11432;46.924;7.114;2024-02-14T15:31:43;12.40;99.90
22532;DHT22;11432;46.924;7.114;2024-02-14T15:34:27;12.30;29.60
22532;DHT22;11432;46.924;7.114;2024-02-14T15:36:54;12.20;1.00
22532;DHT22;11432;46.924;7.114;2024-02-14T15:39:20;12.20;29.60
22532;DHT22;11432;46.924;7.114;2024-02-14T15:41:45;12.20;72.90
22532;DHT22;11432;46.924;7.114;2024-02-14T15:44:11;12.00;1.00
22532;DHT22;11432;46.924;7.114;2024-02-14T15:46:37;12.00;1.00